sensor_id;sensor_type;location;lat;lon;timestamp;P1;durP1;ratioP1;P2;durP2;ratioP2
33279;SDS011;20403;43.114;12.434;2023-05-21T00:00:45;12.65;;;5.97;;
33279;SDS011;20403;43.114;12.434;2023-05-21T00:03:11;10.65;;;5.43;;
33279;SDS011;20403;43.114;12.434;2023-05-21T00:05:40;10.45;;;5.28;;
33279;SDS011;20403;43.114;12.434;2023-05-21T00:08:06;12.18;;;5.90;;
33279;SDS011;20403;43.114;12.434;2023-05-21T00:10:31;16.80;;;6.38;;
33279;SDS011;20403;43.114;12.434;2023-05-21T00:12:56;13.60;;;5.53;;
33279;SDS011;20403;43.114;12.434;2023-05-21T00:15:22;12.45;;;6.57;;
33279;SDS011;20403;43.114;12.434;2023-05-21T00:17:47;9.70;;;5.35;;
33279;SDS011;20403;43.114;12.434;2023-05-21T00:20:13;9.10;;;5.63;;
33279;SDS011;20403;43.114;12.434;2023-05-21T00:22:39;7.43;;;5.30;;
33279;SDS011;20403;43.114;12.434;2023-05-21T00:25:06;8.82;;;5.93;;
33279;SDS011;20403;43.114;12.434;2023-05-21T00:27:32;9.63;;;5.57;;
33279;SDS011;20403;43.114;12.434;2023-05-21T00:29:58;13.73;;;6.43;;
33279;SDS011;20403;43.114;12.434;2023-05-21T00:32:23;12.90;;;6.20;;
33279;SDS011;20403;43.114;12.434;2023-05-21T00:34:49;10.32;;;5.95;;
33279;SDS011;20403;43.114;12.434;2023-05-21T00:37:14;17.35;;;6.45;;
33279;SDS011;20403;43.114;12.434;2023-05-21T00:39:40;7.30;;;5.38;;
33279;SDS011;20403;43.114;12.434;2023-05-21T00:42:06;17.13;;;6.07;;
33279;SDS011;20403;43.114;12.434;2023-05-21T00:44:31;8.82;;;5.57;;
33279;SDS011;20403;43.114;12.434;2023-05-21T00:47:01;9.40;;;5.57;;
33279;SDS011;20403;43.114;12.434;2023-05-21T00:49:27;11.82;;;5.43;;
33279;SDS011;20403;43.114;12.434;2023-05-21T00:51:53;8.38;;;5.95;;
33279;SDS011;20403;43.114;12.434;2023-05-21T00:54:20;7.78;;;5.13;;
33279;SDS011;20403;43.114;12.434;2023-05-21T00:56:46;11.35;;;5.68;;
33279;SDS011;20403;43.114;12.434;2023-05-21T00:59:12;10.68;;;5.75;;
33279;SDS011;20403;43.114;12.434;2023-05-21T01:01:39;10.73;;;5.38;;
33279;SDS011;20403;43.114;12.434;2023-05-21T01:04:07;10.35;;;5.63;;
33279;SDS011;20403;43.114;12.434;2023-05-21T01:06:33;12.55;;;5.45;;
33279;SDS011;20403;43.114;12.434;2023-05-21T01:08:59;8.30;;;6.00;;
33279;SDS011;20403;43.114;12.434;2023-05-21T01:11:34;11.57;;;5.82;;
33279;SDS011;20403;43.114;12.434;2023-05-21T01:14:05;15.05;;;5.57;;
33279;SDS011;20403;43.114;12.434;2023-05-21T01:16:34;9.82;;;5.45;;
33279;SDS011;20403;43.114;12.434;2023-05-21T01:19:01;17.00;;;5.75;;
33279;SDS011;20403;43.114;12.434;2023-05-21T01:21:29;20.52;;;5.80;;
33279;SDS011;20403;43.114;12.434;2023-05-21T01:23:55;10.48;;;5.55;;
33279;SDS011;20403;43.114;12.434;2023-05-21T01:26:20;10.10;;;5.90;;
33279;SDS011;20403;43.114;12.434;2023-05-21T01:28:46;12.85;;;6.05;;
33279;SDS011;20403;43.114;12.434;2023-05-21T01:31:34;11.00;;;5.45;;
33279;SDS011;20403;43.114;12.434;2023-05-21T01:34:12;13.57;;;6.17;;
33279;SDS011;20403;43.114;12.434;2023-05-21T01:36:42;11.70;;;6.55;;
33279;SDS011;20403;43.114;12.434;2023-05-21T01:39:27;9.38;;;5.43;;
33279;SDS011;20403;43.114;12.434;2023-05-21T01:41:56;11.50;;;5.28;;
33279;SDS011;20403;43.114;12.434;2023-05-21T01:44:22;9.05;;;6.35;;
33279;SDS011;20403;43.114;12.434;2023-05-21T01:46:51;21.40;;;6.00;;
33279;SDS011;20403;43.114;12.434;2023-05-21T01:49:18;13.82;;;5.45;;
33279;SDS011;20403;43.114;12.434;2023-05-21T01:51:46;11.35;;;4.60;;
33279;SDS011;20403;43.114;12.434;2023-05-21T01:54:12;10.82;;;5.50;;
33279;SDS011;20403;43.114;12.434;2023-05-21T01:56:38;11.40;;;5.55;;
33279;SDS011;20403;43.114;12.434;2023-05-21T01:59:04;14.98;;;5.93;;
33279;SDS011;20403;43.114;12.434;2023-05-21T02:01:29;14.35;;;5.60;;
33279;SDS011;20403;43.114;12.434;2023-05-21T02:03:55;9.63;;;4.45;;
33279;SDS011;20403;43.114;12.434;2023-05-21T02:06:21;13.27;;;5.32;;
33279;SDS011;20403;43.114;12.434;2023-05-21T02:08:47;11.65;;;5.03;;
33279;SDS011;20403;43.114;12.434;2023-05-21T02:11:12;11.20;;;5.05;;
33279;SDS011;20403;43.114;12.434;2023-05-21T02:13:38;9.35;;;4.57;;
33279;SDS011;20403;43.114;12.434;2023-05-21T02:16:06;11.77;;;4.80;;
33279;SDS011;20403;43.114;12.434;2023-05-21T02:18:36;9.90;;;4.70;;
33279;SDS011;20403;43.114;12.434;2023-05-21T02:21:02;10.63;;;4.40;;
33279;SDS011;20403;43.114;12.434;2023-05-21T02:23:27;9.32;;;4.50;;
33279;SDS011;20403;43.114;12.434;2023-05-21T02:25:52;10.00;;;5.10;;
33279;SDS011;20403;43.114;12.434;2023-05-21T02:28:18;14.80;;;5.10;;
33279;SDS011;20403;43.114;12.434;2023-05-21T02:30:45;18.48;;;5.80;;
33279;SDS011;20403;43.114;12.434;2023-05-21T02:33:10;14.10;;;5.85;;
33279;SDS011;20403;43.114;12.434;2023-05-21T02:35:38;9.90;;;5.68;;
33279;SDS011;20403;43.114;12.434;2023-05-21T02:38:03;9.95;;;6.10;;
33279;SDS011;20403;43.114;12.434;2023-05-21T02:40:29;11.75;;;5.78;;
33279;SDS011;20403;43.114;12.434;2023-05-21T02:42:54;11.65;;;5.57;;
33279;SDS011;20403;43.114;12.434;2023-05-21T02:45:20;10.80;;;5.85;;
33279;SDS011;20403;43.114;12.434;2023-05-21T02:47:45;11.00;;;5.53;;
33279;SDS011;20403;43.114;12.434;2023-05-21T02:50:12;11.55;;;5.68;;
33279;SDS011;20403;43.114;12.434;2023-05-21T02:52:38;13.13;;;5.60;;
33279;SDS011;20403;43.114;12.434;2023-05-21T02:55:03;15.48;;;5.70;;
33279;SDS011;20403;43.114;12.434;2023-05-21T02:57:29;11.98;;;5.00;;
33279;SDS011;20403;43.114;12.434;2023-05-21T02:59:54;10.23;;;5.13;;
33279;SDS011;20403;43.114;12.434;2023-05-21T03:02:20;18.98;;;5.78;;
33279;SDS011;20403;43.114;12.434;2023-05-21T03:04:45;14.93;;;6.35;;
33279;SDS011;20403;43.114;12.434;2023-05-21T03:07:14;7.55;;;5.28;;
33279;SDS011;20403;43.114;12.434;2023-05-21T03:09:43;14.30;;;6.32;;
33279;SDS011;20403;43.114;12.434;2023-05-21T03:12:09;12.27;;;7.43;;
33279;SDS011;20403;43.114;12.434;2023-05-21T03:14:35;13.70;;;6.70;;
33279;SDS011;20403;43.114;12.434;2023-05-21T03:17:01;13.38;;;7.35;;
33279;SDS011;20403;43.114;12.434;2023-05-21T03:19:30;12.38;;;7.00;;
33279;SDS011;20403;43.114;12.434;2023-05-21T03:22:00;10.60;;;7.43;;
33279;SDS011;20403;43.114;12.434;2023-05-21T03:24:27;18.42;;;7.80;;
33279;SDS011;20403;43.114;12.434;2023-05-21T03:26:54;11.02;;;6.97;;
33279;SDS011;20403;43.114;12.434;2023-05-21T03:29:20;17.02;;;9.45;;
33279;SDS011;20403;43.114;12.434;2023-05-21T03:31:45;16.33;;;9.25;;
33279;SDS011;20403;43.114;12.434;2023-05-21T03:34:11;20.08;;;8.00;;
33279;SDS011;20403;43.114;12.434;2023-05-21T03:36:36;17.20;;;9.82;;
33279;SDS011;20403;43.114;12.434;2023-05-21T03:39:02;17.02;;;9.38;;
33279;SDS011;20403;43.114;12.434;2023-05-21T03:41:30;17.38;;;9.68;;
33279;SDS011;20403;43.114;12.434;2023-05-21T03:43:56;15.15;;;9.70;;
33279;SDS011;20403;43.114;12.434;2023-05-21T03:46:22;16.92;;;10.18;;
33279;SDS011;20403;43.114;12.434;2023-05-21T03:48:48;16.55;;;9.63;;
33279;SDS011;20403;43.114;12.434;2023-05-21T03:51:13;17.00;;;10.20;;
33279;SDS011;20403;43.114;12.434;2023-05-21T03:53:40;15.65;;;10.38;;
33279;SDS011;20403;43.114;12.434;2023-05-21T03:56:05;17.75;;;10.20;;
33279;SDS011;20403;43.114;12.434;2023-05-21T03:58:31;16.75;;;9.27;;
33279;SDS011;20403;43.114;12.434;2023-05-21T04:00:56;19.02;;;10.02;;
33279;SDS011;20403;43.114;12.434;2023-05-21T04:03:22;16.20;;;9.85;;
33279;SDS011;20403;43.114;12.434;2023-05-21T04:05:47;16.92;;;9.65;;
33279;SDS011;20403;43.114;12.434;2023-05-21T04:08:13;14.55;;;9.40;;
33279;SDS011;20403;43.114;12.434;2023-05-21T04:10:39;14.57;;;9.95;;
33279;SDS011;20403;43.114;12.434;2023-05-21T04:13:05;16.05;;;10.07;;
33279;SDS011;20403;43.114;12.434;2023-05-21T04:15:30;16.48;;;10.10;;
33279;SDS011;20403;43.114;12.434;2023-05-21T04:17:56;16.88;;;10.50;;
33279;SDS011;20403;43.114;12.434;2023-05-21T04:20:22;15.57;;;10.10;;
33279;SDS011;20403;43.114;12.434;2023-05-21T04:22:47;17.17;;;10.02;;
33279;SDS011;20403;43.114;12.434;2023-05-21T04:25:13;15.23;;;10.13;;
33279;SDS011;20403;43.114;12.434;2023-05-21T04:27:38;22.27;;;10.07;;
33279;SDS011;20403;43.114;12.434;2023-05-21T04:30:04;15.93;;;10.63;;
33279;SDS011;20403;43.114;12.434;2023-05-21T04:32:30;18.08;;;10.50;;
33279;SDS011;20403;43.114;12.434;2023-05-21T04:34:57;18.08;;;11.10;;
33279;SDS011;20403;43.114;12.434;2023-05-21T04:37:25;21.20;;;10.88;;
33279;SDS011;20403;43.114;12.434;2023-05-21T04:39:54;16.85;;;10.45;;
33279;SDS011;20403;43.114;12.434;2023-05-21T04:42:19;21.02;;;11.80;;
33279;SDS011;20403;43.114;12.434;2023-05-21T04:44:48;20.33;;;11.00;;
33279;SDS011;20403;43.114;12.434;2023-05-21T04:47:13;17.65;;;11.18;;
33279;SDS011;20403;43.114;12.434;2023-05-21T04:49:39;19.83;;;11.82;;
33279;SDS011;20403;43.114;12.434;2023-05-21T04:52:05;19.00;;;11.70;;
33279;SDS011;20403;43.114;12.434;2023-05-21T04:54:30;23.88;;;11.73;;
33279;SDS011;20403;43.114;12.434;2023-05-21T04:56:55;17.23;;;11.02;;
33279;SDS011;20403;43.114;12.434;2023-05-21T04:59:22;20.88;;;11.82;;
33279;SDS011;20403;43.114;12.434;2023-05-21T05:01:47;17.92;;;12.50;;
33279;SDS011;20403;43.114;12.434;2023-05-21T05:04:13;20.05;;;11.68;;
33279;SDS011;20403;43.114;12.434;2023-05-21T05:06:38;24.65;;;11.70;;
33279;SDS011;20403;43.114;12.434;2023-05-21T05:09:03;19.90;;;11.55;;
33279;SDS011;20403;43.114;12.434;2023-05-21T05:11:29;19.25;;;11.98;;
33279;SDS011;20403;43.114;12.434;2023-05-21T05:13:54;19.88;;;11.60;;
33279;SDS011;20403;43.114;12.434;2023-05-21T05:16:20;17.27;;;11.25;;
33279;SDS011;20403;43.114;12.434;2023-05-21T05:18:53;15.80;;;10.95;;
33279;SDS011;20403;43.114;12.434;2023-05-21T05:21:20;19.10;;;10.70;;
33279;SDS011;20403;43.114;12.434;2023-05-21T05:23:46;14.60;;;9.80;;
33279;SDS011;20403;43.114;12.434;2023-05-21T05:26:11;14.32;;;9.98;;
33279;SDS011;20403;43.114;12.434;2023-05-21T05:28:37;15.48;;;9.57;;
33279;SDS011;20403;43.114;12.434;2023-05-21T05:31:02;13.25;;;9.20;;
33279;SDS011;20403;43.114;12.434;2023-05-21T05:33:28;17.73;;;10.35;;
33279;SDS011;20403;43.114;12.434;2023-05-21T05:35:53;23.42;;;10.02;;
33279;SDS011;20403;43.114;12.434;2023-05-21T05:38:19;19.05;;;9.52;;
33279;SDS011;20403;43.114;12.434;2023-05-21T05:40:44;13.40;;;9.52;;
33279;SDS011;20403;43.114;12.434;2023-05-21T05:43:10;12.50;;;9.50;;
33279;SDS011;20403;43.114;12.434;2023-05-21T05:45:35;11.77;;;8.73;;
33279;SDS011;20403;43.114;12.434;2023-05-21T05:48:01;15.60;;;9.40;;
33279;SDS011;20403;43.114;12.434;2023-05-21T05:50:26;20.85;;;10.07;;
33279;SDS011;20403;43.114;12.434;2023-05-21T05:52:52;15.90;;;9.27;;
33279;SDS011;20403;43.114;12.434;2023-05-21T05:55:17;21.48;;;9.65;;
33279;SDS011;20403;43.114;12.434;2023-05-21T05:57:43;14.13;;;9.32;;
33279;SDS011;20403;43.114;12.434;2023-05-21T06:00:08;16.85;;;9.68;;
33279;SDS011;20403;43.114;12.434;2023-05-21T06:02:34;19.10;;;9.95;;
33279;SDS011;20403;43.114;12.434;2023-05-21T06:05:00;17.58;;;9.38;;
33279;SDS011;20403;43.114;12.434;2023-05-21T06:07:26;13.98;;;9.05;;
33279;SDS011;20403;43.114;12.434;2023-05-21T06:09:52;17.38;;;9.35;;
33279;SDS011;20403;43.114;12.434;2023-05-21T06:12:17;14.90;;;9.77;;
33279;SDS011;20403;43.114;12.434;2023-05-21T06:14:43;16.23;;;10.60;;
33279;SDS011;20403;43.114;12.434;2023-05-21T06:17:10;19.77;;;10.35;;
33279;SDS011;20403;43.114;12.434;2023-05-21T06:19:35;14.25;;;10.30;;
33279;SDS011;20403;43.114;12.434;2023-05-21T06:22:01;15.50;;;10.10;;
33279;SDS011;20403;43.114;12.434;2023-05-21T06:24:26;19.75;;;10.63;;
33279;SDS011;20403;43.114;12.434;2023-05-21T06:26:52;17.63;;;11.48;;
33279;SDS011;20403;43.114;12.434;2023-05-21T06:29:17;14.57;;;10.55;;
33279;SDS011;20403;43.114;12.434;2023-05-21T06:31:42;15.55;;;10.18;;
33279;SDS011;20403;43.114;12.434;2023-05-21T06:34:08;13.80;;;9.95;;
33279;SDS011;20403;43.114;12.434;2023-05-21T06:36:35;22.13;;;12.00;;
33279;SDS011;20403;43.114;12.434;2023-05-21T06:39:01;16.15;;;10.75;;
33279;SDS011;20403;43.114;12.434;2023-05-21T06:41:27;17.90;;;10.05;;
33279;SDS011;20403;43.114;12.434;2023-05-21T06:43:52;15.27;;;10.95;;
33279;SDS011;20403;43.114;12.434;2023-05-21T06:46:18;16.60;;;10.88;;
33279;SDS011;20403;43.114;12.434;2023-05-21T06:48:43;14.77;;;11.68;;
33279;SDS011;20403;43.114;12.434;2023-05-21T06:51:10;18.98;;;10.70;;
33279;SDS011;20403;43.114;12.434;2023-05-21T06:53:35;16.92;;;11.98;;
33279;SDS011;20403;43.114;12.434;2023-05-21T06:56:01;16.45;;;10.98;;
33279;SDS011;20403;43.114;12.434;2023-05-21T06:58:26;15.68;;;11.20;;
33279;SDS011;20403;43.114;12.434;2023-05-21T07:00:55;16.65;;;11.40;;
33279;SDS011;20403;43.114;12.434;2023-05-21T07:03:21;18.27;;;11.20;;
33279;SDS011;20403;43.114;12.434;2023-05-21T07:05:46;16.70;;;11.32;;
33279;SDS011;20403;43.114;12.434;2023-05-21T07:08:12;18.05;;;11.05;;
33279;SDS011;20403;43.114;12.434;2023-05-21T07:10:37;15.32;;;10.13;;
33279;SDS011;20403;43.114;12.434;2023-05-21T07:13:03;20.17;;;10.20;;
33279;SDS011;20403;43.114;12.434;2023-05-21T07:15:28;17.35;;;9.35;;
33279;SDS011;20403;43.114;12.434;2023-05-21T07:17:54;16.25;;;10.18;;
33279;SDS011;20403;43.114;12.434;2023-05-21T07:20:19;14.73;;;9.82;;
33279;SDS011;20403;43.114;12.434;2023-05-21T07:22:44;14.63;;;10.15;;
33279;SDS011;20403;43.114;12.434;2023-05-21T07:25:10;15.57;;;9.82;;
33279;SDS011;20403;43.114;12.434;2023-05-21T07:27:35;14.88;;;9.73;;
33279;SDS011;20403;43.114;12.434;2023-05-21T07:30:01;20.70;;;10.18;;
33279;SDS011;20403;43.114;12.434;2023-05-21T07:32:26;14.65;;;10.10;;
33279;SDS011;20403;43.114;12.434;2023-05-21T07:34:53;16.85;;;9.90;;
33279;SDS011;20403;43.114;12.434;2023-05-21T07:37:19;16.55;;;10.25;;
33279;SDS011;20403;43.114;12.434;2023-05-21T07:39:45;17.15;;;10.57;;
33279;SDS011;20403;43.114;12.434;2023-05-21T07:42:10;13.73;;;9.90;;
33279;SDS011;20403;43.114;12.434;2023-05-21T07:44:36;15.25;;;9.60;;
33279;SDS011;20403;43.114;12.434;2023-05-21T07:47:01;17.45;;;10.15;;
33279;SDS011;20403;43.114;12.434;2023-05-21T07:49:26;17.48;;;8.95;;
33279;SDS011;20403;43.114;12.434;2023-05-21T07:51:52;19.40;;;9.38;;
33279;SDS011;20403;43.114;12.434;2023-05-21T07:54:17;17.13;;;8.75;;
33279;SDS011;20403;43.114;12.434;2023-05-21T07:56:43;14.93;;;9.27;;
33279;SDS011;20403;43.114;12.434;2023-05-21T07:59:09;17.02;;;8.60;;
33279;SDS011;20403;43.114;12.434;2023-05-21T08:01:34;14.90;;;8.25;;
33279;SDS011;20403;43.114;12.434;2023-05-21T08:04:01;16.65;;;9.60;;
33279;SDS011;20403;43.114;12.434;2023-05-21T08:06:30;14.98;;;8.57;;
33279;SDS011;20403;43.114;12.434;2023-05-21T08:08:58;13.10;;;9.10;;
33279;SDS011;20403;43.114;12.434;2023-05-21T08:11:25;17.23;;;8.35;;
33279;SDS011;20403;43.114;12.434;2023-05-21T08:13:51;13.95;;;8.43;;
33279;SDS011;20403;43.114;12.434;2023-05-21T08:16:17;15.65;;;8.55;;
33279;SDS011;20403;43.114;12.434;2023-05-21T08:18:42;12.85;;;8.40;;
33279;SDS011;20403;43.114;12.434;2023-05-21T08:21:07;15.60;;;8.35;;
33279;SDS011;20403;43.114;12.434;2023-05-21T08:23:33;13.35;;;9.50;;
33279;SDS011;20403;43.114;12.434;2023-05-21T08:25:58;17.75;;;8.93;;
33279;SDS011;20403;43.114;12.434;2023-05-21T08:28:24;13.48;;;8.52;;
33279;SDS011;20403;43.114;12.434;2023-05-21T08:30:51;15.98;;;9.27;;
33279;SDS011;20403;43.114;12.434;2023-05-21T08:33:16;12.95;;;9.65;;
33279;SDS011;20403;43.114;12.434;2023-05-21T08:35:42;14.52;;;8.50;;
33279;SDS011;20403;43.114;12.434;2023-05-21T08:38:07;20.05;;;8.35;;
33279;SDS011;20403;43.114;12.434;2023-05-21T08:40:33;17.23;;;7.97;;
33279;SDS011;20403;43.114;12.434;2023-05-21T08:42:59;13.20;;;9.70;;
33279;SDS011;20403;43.114;12.434;2023-05-21T08:45:25;15.48;;;9.00;;
33279;SDS011;20403;43.114;12.434;2023-05-21T08:47:54;15.93;;;8.95;;
33279;SDS011;20403;43.114;12.434;2023-05-21T08:50:21;15.55;;;8.13;;
33279;SDS011;20403;43.114;12.434;2023-05-21T08:52:50;12.45;;;8.80;;
33279;SDS011;20403;43.114;12.434;2023-05-21T08:55:16;18.75;;;8.27;;
33279;SDS011;20403;43.114;12.434;2023-05-21T08:57:42;11.75;;;7.93;;
33279;SDS011;20403;43.114;12.434;2023-05-21T09:00:08;11.77;;;7.35;;
33279;SDS011;20403;43.114;12.434;2023-05-21T09:02:35;11.27;;;6.80;;
33279;SDS011;20403;43.114;12.434;2023-05-21T09:05:04;16.85;;;8.20;;
33279;SDS011;20403;43.114;12.434;2023-05-21T09:07:31;16.98;;;8.23;;
33279;SDS011;20403;43.114;12.434;2023-05-21T09:10:03;10.38;;;7.78;;
33279;SDS011;20403;43.114;12.434;2023-05-21T09:12:33;13.10;;;7.82;;
33279;SDS011;20403;43.114;12.434;2023-05-21T09:14:59;15.90;;;7.60;;
33279;SDS011;20403;43.114;12.434;2023-05-21T09:17:25;14.43;;;7.78;;
33279;SDS011;20403;43.114;12.434;2023-05-21T09:22:38;13.70;;;7.45;;
33279;SDS011;20403;43.114;12.434;2023-05-21T09:25:11;17.30;;;8.70;;
33279;SDS011;20403;43.114;12.434;2023-05-21T09:27:39;18.08;;;8.77;;
33279;SDS011;20403;43.114;12.434;2023-05-21T09:30:11;15.73;;;8.75;;
33279;SDS011;20403;43.114;12.434;2023-05-21T09:32:39;17.42;;;8.75;;
33279;SDS011;20403;43.114;12.434;2023-05-21T09:35:06;12.95;;;8.30;;
33279;SDS011;20403;43.114;12.434;2023-05-21T09:37:39;15.35;;;8.70;;
33279;SDS011;20403;43.114;12.434;2023-05-21T09:42:36;13.52;;;9.00;;
33279;SDS011;20403;43.114;12.434;2023-05-21T09:45:03;16.83;;;9.05;;
33279;SDS011;20403;43.114;12.434;2023-05-21T09:47:28;16.85;;;8.95;;
33279;SDS011;20403;43.114;12.434;2023-05-21T09:49:57;17.60;;;10.00;;
33279;SDS011;20403;43.114;12.434;2023-05-21T09:52:25;14.68;;;11.02;;
33279;SDS011;20403;43.114;12.434;2023-05-21T09:54:52;13.88;;;9.23;;
33279;SDS011;20403;43.114;12.434;2023-05-21T09:57:24;17.45;;;9.77;;
33279;SDS011;20403;43.114;12.434;2023-05-21T09:59:50;14.50;;;10.27;;
33279;SDS011;20403;43.114;12.434;2023-05-21T10:02:19;16.38;;;10.00;;
33279;SDS011;20403;43.114;12.434;2023-05-21T10:04:49;16.45;;;10.88;;
33279;SDS011;20403;43.114;12.434;2023-05-21T10:07:20;13.70;;;10.25;;
33279;SDS011;20403;43.114;12.434;2023-05-21T10:09:50;13.52;;;9.68;;
33279;SDS011;20403;43.114;12.434;2023-05-21T10:12:19;16.60;;;9.70;;
33279;SDS011;20403;43.114;12.434;2023-05-21T10:14:50;14.88;;;10.25;;
33279;SDS011;20403;43.114;12.434;2023-05-21T10:17:18;12.35;;;9.38;;
33279;SDS011;20403;43.114;12.434;2023-05-21T10:19:45;16.58;;;9.32;;
33279;SDS011;20403;43.114;12.434;2023-05-21T10:22:11;14.57;;;10.23;;
33279;SDS011;20403;43.114;12.434;2023-05-21T10:24:39;12.07;;;8.55;;
33279;SDS011;20403;43.114;12.434;2023-05-21T10:27:06;13.48;;;9.57;;
33279;SDS011;20403;43.114;12.434;2023-05-21T10:29:31;10.77;;;8.98;;
33279;SDS011;20403;43.114;12.434;2023-05-21T10:31:59;15.32;;;9.45;;
33279;SDS011;20403;43.114;12.434;2023-05-21T10:34:25;15.70;;;8.98;;
33279;SDS011;20403;43.114;12.434;2023-05-21T10:36:52;17.63;;;8.98;;
33279;SDS011;20403;43.114;12.434;2023-05-21T10:39:19;12.02;;;8.82;;
33279;SDS011;20403;43.114;12.434;2023-05-21T10:41:57;17.33;;;8.55;;
33279;SDS011;20403;43.114;12.434;2023-05-21T11:01:32;9.52;;;7.88;;
33279;SDS011;20403;43.114;12.434;2023-05-21T11:04:00;10.05;;;8.65;;
33279;SDS011;20403;43.114;12.434;2023-05-21T11:06:27;14.88;;;9.05;;
33279;SDS011;20403;43.114;12.434;2023-05-21T11:08:53;13.48;;;8.00;;
33279;SDS011;20403;43.114;12.434;2023-05-21T11:22:06;17.60;;;8.45;;
33279;SDS011;20403;43.114;12.434;2023-05-21T11:24:33;17.67;;;8.57;;
33279;SDS011;20403;43.114;12.434;2023-05-21T11:27:02;16.40;;;7.75;;
33279;SDS011;20403;43.114;12.434;2023-05-21T11:29:35;10.93;;;8.00;;
33279;SDS011;20403;43.114;12.434;2023-05-21T11:32:04;11.07;;;8.43;;
33279;SDS011;20403;43.114;12.434;2023-05-21T11:34:40;10.10;;;7.22;;
33279;SDS011;20403;43.114;12.434;2023-05-21T11:39:42;11.35;;;7.45;;
33279;SDS011;20403;43.114;12.434;2023-05-21T11:42:08;10.70;;;7.40;;
33279;SDS011;20403;43.114;12.434;2023-05-21T11:47:08;12.52;;;7.97;;
33279;SDS011;20403;43.114;12.434;2023-05-21T11:49:42;11.15;;;7.22;;
33279;SDS011;20403;43.114;12.434;2023-05-21T11:52:08;10.88;;;7.85;;
33279;SDS011;20403;43.114;12.434;2023-05-21T11:54:39;10.75;;;7.60;;
33279;SDS011;20403;43.114;12.434;2023-05-21T11:57:08;13.48;;;7.75;;
33279;SDS011;20403;43.114;12.434;2023-05-21T11:59:35;9.75;;;7.35;;
33279;SDS011;20403;43.114;12.434;2023-05-21T12:02:01;11.77;;;7.63;;
33279;SDS011;20403;43.114;12.434;2023-05-21T12:04:34;10.82;;;7.65;;
33279;SDS011;20403;43.114;12.434;2023-05-21T12:07:06;10.13;;;7.88;;
33279;SDS011;20403;43.114;12.434;2023-05-21T12:09:46;11.68;;;7.25;;
33279;SDS011;20403;43.114;12.434;2023-05-21T12:12:18;15.00;;;8.10;;
33279;SDS011;20403;43.114;12.434;2023-05-21T12:14:48;13.27;;;7.45;;
33279;SDS011;20403;43.114;12.434;2023-05-21T12:17:17;9.10;;;6.97;;
33279;SDS011;20403;43.114;12.434;2023-05-21T12:19:44;11.07;;;7.20;;
33279;SDS011;20403;43.114;12.434;2023-05-21T12:22:10;12.98;;;7.38;;
33279;SDS011;20403;43.114;12.434;2023-05-21T12:24:36;10.93;;;7.28;;
33279;SDS011;20403;43.114;12.434;2023-05-21T12:27:03;13.00;;;7.28;;
33279;SDS011;20403;43.114;12.434;2023-05-21T12:29:34;13.95;;;8.60;;
33279;SDS011;20403;43.114;12.434;2023-05-21T12:32:00;10.07;;;7.18;;
33279;SDS011;20403;43.114;12.434;2023-05-21T12:37:26;14.63;;;7.15;;
33279;SDS011;20403;43.114;12.434;2023-05-21T12:39:59;9.70;;;7.32;;
33279;SDS011;20403;43.114;12.434;2023-05-21T12:42:30;10.73;;;7.07;;
33279;SDS011;20403;43.114;12.434;2023-05-21T12:45:00;11.82;;;6.80;;
33279;SDS011;20403;43.114;12.434;2023-05-21T12:47:35;10.40;;;7.32;;
33279;SDS011;20403;43.114;12.434;2023-05-21T12:50:02;10.43;;;7.03;;
33279;SDS011;20403;43.114;12.434;2023-05-21T12:52:31;10.90;;;6.72;;
33279;SDS011;20403;43.114;12.434;2023-05-21T12:54:57;10.07;;;7.20;;
33279;SDS011;20403;43.114;12.434;2023-05-21T12:57:24;11.05;;;7.03;;
33279;SDS011;20403;43.114;12.434;2023-05-21T12:59:50;10.40;;;6.50;;
33279;SDS011;20403;43.114;12.434;2023-05-21T13:02:26;10.57;;;7.85;;
33279;SDS011;20403;43.114;12.434;2023-05-21T13:04:56;12.07;;;7.72;;
33279;SDS011;20403;43.114;12.434;2023-05-21T13:07:29;16.13;;;8.02;;
33279;SDS011;20403;43.114;12.434;2023-05-21T13:09:55;11.20;;;8.02;;
33279;SDS011;20403;43.114;12.434;2023-05-21T13:12:22;10.18;;;7.88;;
33279;SDS011;20403;43.114;12.434;2023-05-21T13:14:50;10.55;;;7.93;;
33279;SDS011;20403;43.114;12.434;2023-05-21T13:17:17;15.90;;;8.55;;
33279;SDS011;20403;43.114;12.434;2023-05-21T13:19:45;12.65;;;7.95;;
33279;SDS011;20403;43.114;12.434;2023-05-21T13:22:32;11.18;;;8.10;;
33279;SDS011;20403;43.114;12.434;2023-05-21T13:25:03;13.07;;;8.55;;
33279;SDS011;20403;43.114;12.434;2023-05-21T13:27:29;11.02;;;7.90;;
33279;SDS011;20403;43.114;12.434;2023-05-21T13:29:54;11.30;;;8.40;;
33279;SDS011;20403;43.114;12.434;2023-05-21T13:32:20;12.60;;;8.57;;
33279;SDS011;20403;43.114;12.434;2023-05-21T13:34:46;13.48;;;8.60;;
33279;SDS011;20403;43.114;12.434;2023-05-21T13:37:12;10.52;;;7.78;;
33279;SDS011;20403;43.114;12.434;2023-05-21T13:39:37;12.73;;;8.15;;
33279;SDS011;20403;43.114;12.434;2023-05-21T13:42:03;12.55;;;8.27;;
33279;SDS011;20403;43.114;12.434;2023-05-21T13:44:29;12.48;;;8.73;;
33279;SDS011;20403;43.114;12.434;2023-05-21T13:47:00;11.73;;;8.43;;
33279;SDS011;20403;43.114;12.434;2023-05-21T13:49:28;11.85;;;8.05;;
33279;SDS011;20403;43.114;12.434;2023-05-21T13:51:53;12.38;;;7.95;;
33279;SDS011;20403;43.114;12.434;2023-05-21T13:54:19;11.05;;;8.27;;
33279;SDS011;20403;43.114;12.434;2023-05-21T13:56:45;12.65;;;8.10;;
33279;SDS011;20403;43.114;12.434;2023-05-21T13:59:10;9.73;;;7.97;;
33279;SDS011;20403;43.114;12.434;2023-05-21T14:01:36;13.27;;;8.32;;
33279;SDS011;20403;43.114;12.434;2023-05-21T14:04:01;16.33;;;8.20;;
33279;SDS011;20403;43.114;12.434;2023-05-21T14:06:30;10.57;;;7.85;;
33279;SDS011;20403;43.114;12.434;2023-05-21T14:08:56;10.65;;;8.10;;
33279;SDS011;20403;43.114;12.434;2023-05-21T14:11:25;11.70;;;8.27;;
33279;SDS011;20403;43.114;12.434;2023-05-21T14:13:52;13.13;;;8.32;;
33279;SDS011;20403;43.114;12.434;2023-05-21T14:16:17;12.43;;;8.00;;
33279;SDS011;20403;43.114;12.434;2023-05-21T14:18:43;11.02;;;7.68;;
33279;SDS011;20403;43.114;12.434;2023-05-21T14:21:09;10.23;;;7.43;;
33279;SDS011;20403;43.114;12.434;2023-05-21T14:23:34;11.35;;;7.07;;
33279;SDS011;20403;43.114;12.434;2023-05-21T14:25:59;10.18;;;7.72;;
33279;SDS011;20403;43.114;12.434;2023-05-21T14:28:25;13.85;;;8.48;;
33279;SDS011;20403;43.114;12.434;2023-05-21T14:30:50;9.73;;;8.15;;
33279;SDS011;20403;43.114;12.434;2023-05-21T14:33:16;10.73;;;7.93;;
33279;SDS011;20403;43.114;12.434;2023-05-21T14:35:41;14.20;;;8.40;;
33279;SDS011;20403;43.114;12.434;2023-05-21T14:38:08;15.45;;;8.60;;
33279;SDS011;20403;43.114;12.434;2023-05-21T14:40:34;14.85;;;8.40;;
33279;SDS011;20403;43.114;12.434;2023-05-21T14:42:59;10.70;;;7.97;;
33279;SDS011;20403;43.114;12.434;2023-05-21T14:45:25;12.15;;;7.97;;
33279;SDS011;20403;43.114;12.434;2023-05-21T14:47:50;12.60;;;8.70;;
33279;SDS011;20403;43.114;12.434;2023-05-21T14:50:16;15.60;;;9.00;;
33279;SDS011;20403;43.114;12.434;2023-05-21T14:52:42;14.10;;;8.43;;
33279;SDS011;20403;43.114;12.434;2023-05-21T14:55:08;13.65;;;7.95;;
33279;SDS011;20403;43.114;12.434;2023-05-21T14:57:33;9.90;;;7.93;;
33279;SDS011;20403;43.114;12.434;2023-05-21T14:59:59;12.32;;;8.45;;